sensor_id;sensor_type;location;lat;lon;timestamp;P1;durP1;ratioP1;P2;durP2;ratioP2
75169;SDS011;63749;49.186;9.222;2022-10-31T00:00:17;40.37;;;18.33;;
75169;SDS011;63749;49.186;9.222;2022-10-31T00:02:42;36.43;;;18.23;;
75169;SDS011;63749;49.186;9.222;2022-10-31T00:05:08;34.83;;;18.87;;
75169;SDS011;63749;49.186;9.222;2022-10-31T00:07:33;35.93;;;18.23;;
75169;SDS011;63749;49.186;9.222;2022-10-31T00:09:59;42.53;;;20.35;;
75169;SDS011;63749;49.186;9.222;2022-10-31T00:12:25;41.77;;;19.73;;
75169;SDS011;63749;49.186;9.222;2022-10-31T00:14:50;39.20;;;20.45;;
75169;SDS011;63749;49.186;9.222;2022-10-31T00:17:16;48.10;;;20.53;;
75169;SDS011;63749;49.186;9.222;2022-10-31T00:19:41;84.10;;;24.53;;
75169;SDS011;63749;49.186;9.222;2022-10-31T00:22:06;189.57;;;29.27;;
75169;SDS011;63749;49.186;9.222;2022-10-31T00:24:32;238.77;;;31.73;;
75169;SDS011;63749;49.186;9.222;2022-10-31T00:26:57;168.70;;;29.03;;
75169;SDS011;63749;49.186;9.222;2022-10-31T00:29:22;203.57;;;31.27;;
75169;SDS011;63749;49.186;9.222;2022-10-31T00:31:48;114.77;;;27.37;;
75169;SDS011;63749;49.186;9.222;2022-10-31T00:34:13;140.77;;;28.37;;
75169;SDS011;63749;49.186;9.222;2022-10-31T00:36:38;199.43;;;30.55;;
75169;SDS011;63749;49.186;9.222;2022-10-31T00:39:03;108.53;;;28.73;;
75169;SDS011;63749;49.186;9.222;2022-10-31T00:41:29;177.10;;;29.20;;
75169;SDS011;63749;49.186;9.222;2022-10-31T00:43:54;249.97;;;34.00;;
75169;SDS011;63749;49.186;9.222;2022-10-31T00:46:20;134.07;;;29.70;;
75169;SDS011;63749;49.186;9.222;2022-10-31T00:48:45;176.53;;;31.67;;
75169;SDS011;63749;49.186;9.222;2022-10-31T00:51:11;175.00;;;30.80;;
75169;SDS011;63749;49.186;9.222;2022-10-31T00:53:36;115.07;;;29.47;;
75169;SDS011;63749;49.186;9.222;2022-10-31T00:56:01;98.93;;;27.60;;
75169;SDS011;63749;49.186;9.222;2022-10-31T00:58:27;154.10;;;31.00;;
75169;SDS011;63749;49.186;9.222;2022-10-31T01:00:52;153.47;;;32.30;;
75169;SDS011;63749;49.186;9.222;2022-10-31T01:03:24;127.28;;;28.30;;
75169;SDS011;63749;49.186;9.222;2022-10-31T01:05:55;96.97;;;25.83;;
75169;SDS011;63749;49.186;9.222;2022-10-31T01:08:22;105.72;;;26.92;;
75169;SDS011;63749;49.186;9.222;2022-10-31T01:10:57;136.90;;;29.00;;
75169;SDS011;63749;49.186;9.222;2022-10-31T01:13:23;124.93;;;27.63;;
75169;SDS011;63749;49.186;9.222;2022-10-31T01:15:53;94.63;;;25.27;;
75169;SDS011;63749;49.186;9.222;2022-10-31T01:18:19;135.65;;;30.58;;
75169;SDS011;63749;49.186;9.222;2022-10-31T01:20:44;107.70;;;29.83;;
75169;SDS011;63749;49.186;9.222;2022-10-31T01:23:10;133.35;;;30.08;;
75169;SDS011;63749;49.186;9.222;2022-10-31T01:25:35;121.20;;;29.00;;
75169;SDS011;63749;49.186;9.222;2022-10-31T01:28:00;96.73;;;27.23;;
75169;SDS011;63749;49.186;9.222;2022-10-31T01:30:26;97.63;;;28.87;;
75169;SDS011;63749;49.186;9.222;2022-10-31T01:32:51;109.60;;;26.90;;
75169;SDS011;63749;49.186;9.222;2022-10-31T01:35:16;131.00;;;26.77;;
75169;SDS011;63749;49.186;9.222;2022-10-31T01:37:41;113.20;;;24.77;;
75169;SDS011;63749;49.186;9.222;2022-10-31T01:40:07;87.63;;;23.47;;
75169;SDS011;63749;49.186;9.222;2022-10-31T01:42:33;100.13;;;23.42;;
75169;SDS011;63749;49.186;9.222;2022-10-31T01:44:59;125.83;;;22.83;;
75169;SDS011;63749;49.186;9.222;2022-10-31T01:47:40;125.95;;;22.30;;
75169;SDS011;63749;49.186;9.222;2022-10-31T01:50:13;83.20;;;20.92;;
75169;SDS011;63749;49.186;9.222;2022-10-31T01:52:59;90.22;;;20.13;;
75169;SDS011;63749;49.186;9.222;2022-10-31T01:55:27;113.77;;;23.00;;
75169;SDS011;63749;49.186;9.222;2022-10-31T01:57:56;66.95;;;18.65;;
75169;SDS011;63749;49.186;9.222;2022-10-31T02:00:24;120.28;;;20.35;;
75169;SDS011;63749;49.186;9.222;2022-10-31T02:02:49;69.83;;;17.77;;
75169;SDS011;63749;49.186;9.222;2022-10-31T02:05:17;118.75;;;20.25;;
75169;SDS011;63749;49.186;9.222;2022-10-31T02:07:52;215.60;;;25.58;;
75169;SDS011;63749;49.186;9.222;2022-10-31T02:10:21;119.35;;;21.38;;
75169;SDS011;63749;49.186;9.222;2022-10-31T02:12:50;101.20;;;19.40;;
75169;SDS011;63749;49.186;9.222;2022-10-31T02:15:17;120.40;;;21.08;;
75169;SDS011;63749;49.186;9.222;2022-10-31T02:17:43;79.73;;;19.40;;
75169;SDS011;63749;49.186;9.222;2022-10-31T02:20:14;69.55;;;19.05;;
75169;SDS011;63749;49.186;9.222;2022-10-31T02:25:59;110.40;;;19.23;;
75169;SDS011;63749;49.186;9.222;2022-10-31T02:34:13;81.82;;;17.58;;
75169;SDS011;63749;49.186;9.222;2022-10-31T02:42:17;160.95;;;21.00;;
75169;SDS011;63749;49.186;9.222;2022-10-31T02:47:35;157.00;;;22.58;;
75169;SDS011;63749;49.186;9.222;2022-10-31T02:50:17;105.85;;;20.48;;
75169;SDS011;63749;49.186;9.222;2022-10-31T02:52:49;185.73;;;22.80;;
75169;SDS011;63749;49.186;9.222;2022-10-31T02:57:47;164.45;;;23.73;;
75169;SDS011;63749;49.186;9.222;2022-10-31T03:00:15;168.38;;;24.65;;
75169;SDS011;63749;49.186;9.222;2022-10-31T03:02:46;122.57;;;21.60;;
75169;SDS011;63749;49.186;9.222;2022-10-31T03:07:47;190.87;;;26.17;;
75169;SDS011;63749;49.186;9.222;2022-10-31T03:13:09;303.65;;;28.33;;
75169;SDS011;63749;49.186;9.222;2022-10-31T03:16:29;122.93;;;21.80;;
75169;SDS011;63749;49.186;9.222;2022-10-31T03:19:04;135.52;;;21.13;;
75169;SDS011;63749;49.186;9.222;2022-10-31T03:21:40;89.03;;;18.70;;
75169;SDS011;63749;49.186;9.222;2022-10-31T03:24:09;108.35;;;18.30;;
75169;SDS011;63749;49.186;9.222;2022-10-31T03:26:36;186.18;;;20.85;;
75169;SDS011;63749;49.186;9.222;2022-10-31T03:29:06;153.47;;;16.53;;
75169;SDS011;63749;49.186;9.222;2022-10-31T03:31:35;98.95;;;14.73;;
75169;SDS011;63749;49.186;9.222;2022-10-31T03:34:03;116.40;;;17.10;;
75169;SDS011;63749;49.186;9.222;2022-10-31T03:36:30;119.68;;;16.50;;
75169;SDS011;63749;49.186;9.222;2022-10-31T03:38:59;58.40;;;14.40;;
75169;SDS011;63749;49.186;9.222;2022-10-31T03:41:28;126.03;;;17.13;;
75169;SDS011;63749;49.186;9.222;2022-10-31T03:44:07;123.28;;;17.92;;
75169;SDS011;63749;49.186;9.222;2022-10-31T03:46:37;208.82;;;23.38;;
75169;SDS011;63749;49.186;9.222;2022-10-31T03:49:03;116.00;;;19.85;;
75169;SDS011;63749;49.186;9.222;2022-10-31T03:51:36;81.87;;;17.83;;
75169;SDS011;63749;49.186;9.222;2022-10-31T03:57:00;111.13;;;18.40;;
75169;SDS011;63749;49.186;9.222;2022-10-31T03:59:34;80.85;;;18.17;;
75169;SDS011;63749;49.186;9.222;2022-10-31T04:02:06;72.70;;;18.77;;
75169;SDS011;63749;49.186;9.222;2022-10-31T04:04:34;160.27;;;21.02;;
75169;SDS011;63749;49.186;9.222;2022-10-31T04:07:01;128.40;;;21.83;;
75169;SDS011;63749;49.186;9.222;2022-10-31T04:09:29;240.45;;;24.70;;
75169;SDS011;63749;49.186;9.222;2022-10-31T04:12:00;84.63;;;18.20;;
75169;SDS011;63749;49.186;9.222;2022-10-31T04:14:29;108.30;;;18.73;;
75169;SDS011;63749;49.186;9.222;2022-10-31T04:16:56;85.68;;;16.85;;
75169;SDS011;63749;49.186;9.222;2022-10-31T04:19:24;64.20;;;17.30;;
75169;SDS011;63749;49.186;9.222;2022-10-31T04:21:49;86.37;;;18.27;;
75169;SDS011;63749;49.186;9.222;2022-10-31T04:24:14;120.32;;;20.73;;
75169;SDS011;63749;49.186;9.222;2022-10-31T04:26:40;147.17;;;22.40;;
75169;SDS011;63749;49.186;9.222;2022-10-31T04:29:05;175.13;;;22.20;;
75169;SDS011;63749;49.186;9.222;2022-10-31T04:31:30;143.53;;;21.83;;
75169;SDS011;63749;49.186;9.222;2022-10-31T04:33:56;162.43;;;21.67;;
75169;SDS011;63749;49.186;9.222;2022-10-31T04:36:21;91.60;;;19.47;;
75169;SDS011;63749;49.186;9.222;2022-10-31T04:38:46;81.53;;;16.90;;
75169;SDS011;63749;49.186;9.222;2022-10-31T04:41:12;57.63;;;15.57;;
75169;SDS011;63749;49.186;9.222;2022-10-31T04:43:37;52.63;;;14.80;;
75169;SDS011;63749;49.186;9.222;2022-10-31T04:46:02;41.37;;;14.23;;
75169;SDS011;63749;49.186;9.222;2022-10-31T04:48:28;37.03;;;13.97;;
75169;SDS011;63749;49.186;9.222;2022-10-31T04:50:58;32.17;;;13.55;;
75169;SDS011;63749;49.186;9.222;2022-10-31T04:53:27;44.77;;;15.23;;
75169;SDS011;63749;49.186;9.222;2022-10-31T04:55:53;45.53;;;14.65;;
75169;SDS011;63749;49.186;9.222;2022-10-31T04:58:18;40.13;;;14.03;;
75169;SDS011;63749;49.186;9.222;2022-10-31T05:00:43;45.83;;;14.53;;
75169;SDS011;63749;49.186;9.222;2022-10-31T05:03:09;49.77;;;17.07;;
75169;SDS011;63749;49.186;9.222;2022-10-31T05:05:34;65.15;;;18.63;;
75169;SDS011;63749;49.186;9.222;2022-10-31T05:08:00;54.60;;;17.60;;
75169;SDS011;63749;49.186;9.222;2022-10-31T05:10:26;49.80;;;17.47;;
75169;SDS011;63749;49.186;9.222;2022-10-31T05:12:54;50.33;;;16.95;;
75169;SDS011;63749;49.186;9.222;2022-10-31T05:15:24;47.33;;;17.42;;
75169;SDS011;63749;49.186;9.222;2022-10-31T05:17:50;45.22;;;17.52;;
75169;SDS011;63749;49.186;9.222;2022-10-31T05:20:18;44.10;;;17.35;;
75169;SDS011;63749;49.186;9.222;2022-10-31T05:22:45;46.27;;;15.53;;
75169;SDS011;63749;49.186;9.222;2022-10-31T05:25:12;50.05;;;15.27;;
75169;SDS011;63749;49.186;9.222;2022-10-31T05:27:38;37.03;;;14.77;;
75169;SDS011;63749;49.186;9.222;2022-10-31T05:30:05;37.33;;;13.70;;
75169;SDS011;63749;49.186;9.222;2022-10-31T05:32:36;34.97;;;14.07;;
75169;SDS011;63749;49.186;9.222;2022-10-31T05:35:02;35.72;;;13.88;;
75169;SDS011;63749;49.186;9.222;2022-10-31T05:37:28;36.83;;;14.70;;
75169;SDS011;63749;49.186;9.222;2022-10-31T05:39:53;35.13;;;14.20;;
75169;SDS011;63749;49.186;9.222;2022-10-31T05:42:18;39.80;;;14.60;;
75169;SDS011;63749;49.186;9.222;2022-10-31T05:44:43;34.70;;;14.60;;
75169;SDS011;63749;49.186;9.222;2022-10-31T05:47:09;33.93;;;14.73;;
75169;SDS011;63749;49.186;9.222;2022-10-31T05:49:34;38.07;;;14.97;;
75169;SDS011;63749;49.186;9.222;2022-10-31T05:51:59;50.33;;;15.10;;
75169;SDS011;63749;49.186;9.222;2022-10-31T05:54:25;73.10;;;17.57;;
75169;SDS011;63749;49.186;9.222;2022-10-31T05:56:50;46.50;;;15.67;;
75169;SDS011;63749;49.186;9.222;2022-10-31T05:59:15;31.42;;;13.52;;
75169;SDS011;63749;49.186;9.222;2022-10-31T06:01:41;29.30;;;12.23;;
75169;SDS011;63749;49.186;9.222;2022-10-31T06:04:06;39.40;;;12.37;;
75169;SDS011;63749;49.186;9.222;2022-10-31T06:06:31;28.17;;;12.67;;
75169;SDS011;63749;49.186;9.222;2022-10-31T06:08:57;31.40;;;12.27;;
75169;SDS011;63749;49.186;9.222;2022-10-31T06:11:22;32.00;;;13.63;;
75169;SDS011;63749;49.186;9.222;2022-10-31T06:13:48;35.22;;;13.65;;
75169;SDS011;63749;49.186;9.222;2022-10-31T06:16:13;29.73;;;12.87;;
75169;SDS011;63749;49.186;9.222;2022-10-31T06:18:38;41.17;;;13.67;;
75169;SDS011;63749;49.186;9.222;2022-10-31T06:21:04;55.90;;;15.37;;
75169;SDS011;63749;49.186;9.222;2022-10-31T06:23:29;40.20;;;13.77;;
75169;SDS011;63749;49.186;9.222;2022-10-31T06:25:54;38.57;;;13.70;;
75169;SDS011;63749;49.186;9.222;2022-10-31T06:28:20;42.13;;;12.68;;
75169;SDS011;63749;49.186;9.222;2022-10-31T06:30:45;39.80;;;12.37;;
75169;SDS011;63749;49.186;9.222;2022-10-31T06:33:11;82.10;;;13.30;;
75169;SDS011;63749;49.186;9.222;2022-10-31T06:35:36;71.53;;;13.63;;
75169;SDS011;63749;49.186;9.222;2022-10-31T06:38:01;34.33;;;13.30;;
75169;SDS011;63749;49.186;9.222;2022-10-31T06:40:27;26.40;;;12.83;;
75169;SDS011;63749;49.186;9.222;2022-10-31T06:42:56;28.77;;;12.90;;
75169;SDS011;63749;49.186;9.222;2022-10-31T06:45:25;22.20;;;11.95;;
75169;SDS011;63749;49.186;9.222;2022-10-31T06:47:54;23.95;;;11.93;;
75169;SDS011;63749;49.186;9.222;2022-10-31T06:50:21;26.00;;;12.20;;
75169;SDS011;63749;49.186;9.222;2022-10-31T06:52:53;24.45;;;12.43;;
75169;SDS011;63749;49.186;9.222;2022-10-31T06:55:20;27.88;;;14.05;;
75169;SDS011;63749;49.186;9.222;2022-10-31T06:57:53;25.83;;;12.50;;
75169;SDS011;63749;49.186;9.222;2022-10-31T07:00:21;27.17;;;12.75;;
75169;SDS011;63749;49.186;9.222;2022-10-31T07:03:03;30.63;;;12.43;;
75169;SDS011;63749;49.186;9.222;2022-10-31T07:05:30;43.25;;;13.27;;
75169;SDS011;63749;49.186;9.222;2022-10-31T07:07:57;101.93;;;12.80;;
75169;SDS011;63749;49.186;9.222;2022-10-31T07:10:28;47.40;;;13.10;;
75169;SDS011;63749;49.186;9.222;2022-10-31T07:12:56;24.02;;;11.45;;
75169;SDS011;63749;49.186;9.222;2022-10-31T07:15:26;26.63;;;11.15;;
75169;SDS011;63749;49.186;9.222;2022-10-31T07:17:52;33.50;;;11.55;;
75169;SDS011;63749;49.186;9.222;2022-10-31T07:20:18;32.23;;;12.83;;
75169;SDS011;63749;49.186;9.222;2022-10-31T07:22:44;38.97;;;12.67;;
75169;SDS011;63749;49.186;9.222;2022-10-31T07:25:09;23.40;;;11.20;;
75169;SDS011;63749;49.186;9.222;2022-10-31T07:27:39;21.00;;;10.50;;
75169;SDS011;63749;49.186;9.222;2022-10-31T07:30:05;21.77;;;10.30;;
75169;SDS011;63749;49.186;9.222;2022-10-31T07:32:41;21.20;;;9.82;;
75169;SDS011;63749;49.186;9.222;2022-10-31T07:35:08;17.67;;;8.70;;
75169;SDS011;63749;49.186;9.222;2022-10-31T07:37:35;20.05;;;8.10;;
75169;SDS011;63749;49.186;9.222;2022-10-31T07:40:01;18.07;;;8.50;;
75169;SDS011;63749;49.186;9.222;2022-10-31T07:42:28;21.70;;;8.80;;
75169;SDS011;63749;49.186;9.222;2022-10-31T07:44:53;15.57;;;8.83;;
75169;SDS011;63749;49.186;9.222;2022-10-31T07:47:18;15.57;;;9.27;;
75169;SDS011;63749;49.186;9.222;2022-10-31T07:49:44;21.10;;;9.10;;
75169;SDS011;63749;49.186;9.222;2022-10-31T07:52:09;16.92;;;8.77;;
75169;SDS011;63749;49.186;9.222;2022-10-31T07:54:34;20.40;;;9.00;;
75169;SDS011;63749;49.186;9.222;2022-10-31T07:57:00;15.87;;;9.43;;
75169;SDS011;63749;49.186;9.222;2022-10-31T07:59:25;17.63;;;9.43;;
75169;SDS011;63749;49.186;9.222;2022-10-31T08:01:52;17.88;;;9.25;;
75169;SDS011;63749;49.186;9.222;2022-10-31T08:04:17;17.03;;;9.20;;
75169;SDS011;63749;49.186;9.222;2022-10-31T08:06:43;18.30;;;9.67;;
75169;SDS011;63749;49.186;9.222;2022-10-31T08:09:08;17.58;;;9.82;;
75169;SDS011;63749;49.186;9.222;2022-10-31T08:11:33;24.80;;;10.57;;
75169;SDS011;63749;49.186;9.222;2022-10-31T08:13:58;18.87;;;10.73;;
75169;SDS011;63749;49.186;9.222;2022-10-31T08:16:24;18.87;;;10.60;;
75169;SDS011;63749;49.186;9.222;2022-10-31T08:18:49;21.07;;;11.20;;
75169;SDS011;63749;49.186;9.222;2022-10-31T08:21:14;27.77;;;13.50;;
75169;SDS011;63749;49.186;9.222;2022-10-31T08:23:40;36.00;;;13.47;;
75169;SDS011;63749;49.186;9.222;2022-10-31T08:26:05;33.10;;;14.30;;
75169;SDS011;63749;49.186;9.222;2022-10-31T08:28:31;40.27;;;15.57;;
75169;SDS011;63749;49.186;9.222;2022-10-31T08:30:57;33.97;;;15.80;;
75169;SDS011;63749;49.186;9.222;2022-10-31T08:33:22;29.70;;;14.57;;
75169;SDS011;63749;49.186;9.222;2022-10-31T08:35:48;28.13;;;13.67;;
75169;SDS011;63749;49.186;9.222;2022-10-31T08:38:14;25.73;;;12.80;;
75169;SDS011;63749;49.186;9.222;2022-10-31T08:40:40;18.27;;;11.30;;
75169;SDS011;63749;49.186;9.222;2022-10-31T08:43:14;20.40;;;11.05;;
75169;SDS011;63749;49.186;9.222;2022-10-31T08:45:42;18.80;;;11.20;;
75169;SDS011;63749;49.186;9.222;2022-10-31T08:48:12;18.58;;;11.23;;
75169;SDS011;63749;49.186;9.222;2022-10-31T08:50:39;20.48;;;12.30;;
75169;SDS011;63749;49.186;9.222;2022-10-31T08:53:09;20.80;;;11.85;;
75169;SDS011;63749;49.186;9.222;2022-10-31T08:55:37;20.50;;;11.18;;
75169;SDS011;63749;49.186;9.222;2022-10-31T08:58:04;19.77;;;11.70;;
75169;SDS011;63749;49.186;9.222;2022-10-31T09:00:32;17.10;;;10.75;;
75169;SDS011;63749;49.186;9.222;2022-10-31T09:02:59;18.73;;;10.15;;
75169;SDS011;63749;49.186;9.222;2022-10-31T09:05:26;18.38;;;9.82;;
75169;SDS011;63749;49.186;9.222;2022-10-31T09:07:54;20.53;;;10.70;;
75169;SDS011;63749;49.186;9.222;2022-10-31T09:10:21;14.85;;;9.93;;
75169;SDS011;63749;49.186;9.222;2022-10-31T09:12:46;18.37;;;10.37;;
75169;SDS011;63749;49.186;9.222;2022-10-31T09:15:12;17.97;;;10.13;;
75169;SDS011;63749;49.186;9.222;2022-10-31T09:17:37;17.07;;;10.57;;
75169;SDS011;63749;49.186;9.222;2022-10-31T09:20:02;18.43;;;9.67;;
75169;SDS011;63749;49.186;9.222;2022-10-31T09:22:28;15.93;;;9.02;;
75169;SDS011;63749;49.186;9.222;2022-10-31T09:24:53;15.77;;;10.37;;
75169;SDS011;63749;49.186;9.222;2022-10-31T09:27:18;20.90;;;11.47;;
75169;SDS011;63749;49.186;9.222;2022-10-31T09:29:44;22.10;;;13.37;;
75169;SDS011;63749;49.186;9.222;2022-10-31T09:32:09;17.90;;;10.23;;
75169;SDS011;63749;49.186;9.222;2022-10-31T09:34:34;20.70;;;10.33;;
75169;SDS011;63749;49.186;9.222;2022-10-31T09:37:00;16.38;;;9.82;;
75169;SDS011;63749;49.186;9.222;2022-10-31T09:39:25;15.43;;;9.40;;
75169;SDS011;63749;49.186;9.222;2022-10-31T09:41:57;18.47;;;11.00;;
75169;SDS011;63749;49.186;9.222;2022-10-31T09:45:18;25.50;;;12.95;;
75169;SDS011;63749;49.186;9.222;2022-10-31T09:47:40;22.90;;;12.80;;
75169;SDS011;63749;49.186;9.222;2022-10-31T09:50:36;23.27;;;13.18;;
75169;SDS011;63749;49.186;9.222;2022-10-31T09:53:16;22.73;;;13.20;;
75169;SDS011;63749;49.186;9.222;2022-10-31T09:55:58;25.70;;;13.85;;
75169;SDS011;63749;49.186;9.222;2022-10-31T09:58:25;26.20;;;13.30;;
75169;SDS011;63749;49.186;9.222;2022-10-31T10:00:58;23.37;;;13.03;;
75169;SDS011;63749;49.186;9.222;2022-10-31T10:06:18;18.70;;;11.52;;
75169;SDS011;63749;49.186;9.222;2022-10-31T10:08:47;17.80;;;10.60;;
75169;SDS011;63749;49.186;9.222;2022-10-31T10:11:35;17.17;;;10.53;;
75169;SDS011;63749;49.186;9.222;2022-10-31T10:19:24;24.87;;;11.87;;
75169;SDS011;63749;49.186;9.222;2022-10-31T10:30:14;21.08;;;10.80;;
75169;SDS011;63749;49.186;9.222;2022-10-31T10:32:47;24.90;;;12.13;;
75169;SDS011;63749;49.186;9.222;2022-10-31T10:35:27;23.80;;;11.35;;
75169;SDS011;63749;49.186;9.222;2022-10-31T10:40:51;20.73;;;10.40;;
75169;SDS011;63749;49.186;9.222;2022-10-31T10:43:28;21.65;;;10.80;;
75169;SDS011;63749;49.186;9.222;2022-10-31T10:59:27;22.23;;;11.53;;
75169;SDS011;63749;49.186;9.222;2022-10-31T11:01:52;25.85;;;11.98;;
75169;SDS011;63749;49.186;9.222;2022-10-31T11:04:32;21.03;;;12.63;;
75169;SDS011;63749;49.186;9.222;2022-10-31T11:07:05;22.98;;;12.68;;
75169;SDS011;63749;49.186;9.222;2022-10-31T11:09:32;22.30;;;11.07;;
75169;SDS011;63749;49.186;9.222;2022-10-31T11:11:58;19.25;;;11.07;;
75169;SDS011;63749;49.186;9.222;2022-10-31T11:14:30;21.15;;;11.73;;
75169;SDS011;63749;49.186;9.222;2022-10-31T11:17:06;21.90;;;11.87;;
75169;SDS011;63749;49.186;9.222;2022-10-31T11:19:36;19.15;;;10.90;;
75169;SDS011;63749;49.186;9.222;2022-10-31T11:22:08;17.77;;;11.10;;
75169;SDS011;63749;49.186;9.222;2022-10-31T11:24:41;23.13;;;12.65;;
75169;SDS011;63749;49.186;9.222;2022-10-31T11:27:14;22.25;;;11.60;;
75169;SDS011;63749;49.186;9.222;2022-10-31T11:29:47;20.65;;;10.50;;
75169;SDS011;63749;49.186;9.222;2022-10-31T11:32:17;15.17;;;9.33;;
75169;SDS011;63749;49.186;9.222;2022-10-31T11:34:52;16.35;;;9.75;;
75169;SDS011;63749;49.186;9.222;2022-10-31T11:37:21;14.63;;;9.30;;
75169;SDS011;63749;49.186;9.222;2022-10-31T11:39:51;16.48;;;8.70;;
75169;SDS011;63749;49.186;9.222;2022-10-31T11:42:22;14.13;;;8.60;;
75169;SDS011;63749;49.186;9.222;2022-10-31T11:44:50;14.20;;;9.07;;
75169;SDS011;63749;49.186;9.222;2022-10-31T11:47:17;13.27;;;8.82;;
75169;SDS011;63749;49.186;9.222;2022-10-31T11:49:50;16.80;;;9.20;;
75169;SDS011;63749;49.186;9.222;2022-10-31T11:52:17;19.15;;;9.98;;
75169;SDS011;63749;49.186;9.222;2022-10-31T11:54:57;16.58;;;9.90;;
75169;SDS011;63749;49.186;9.222;2022-10-31T11:57:28;22.27;;;10.90;;
75169;SDS011;63749;49.186;9.222;2022-10-31T12:00:20;16.13;;;10.40;;
75169;SDS011;63749;49.186;9.222;2022-10-31T12:02:50;21.43;;;11.90;;
75169;SDS011;63749;49.186;9.222;2022-10-31T12:05:20;21.13;;;11.38;;
75169;SDS011;63749;49.186;9.222;2022-10-31T12:07:50;23.67;;;10.80;;
75169;SDS011;63749;49.186;9.222;2022-10-31T12:10:15;19.13;;;10.47;;
75169;SDS011;63749;49.186;9.222;2022-10-31T12:12:48;19.08;;;10.48;;
75169;SDS011;63749;49.186;9.222;2022-10-31T12:15:29;16.05;;;9.00;;
75169;SDS011;63749;49.186;9.222;2022-10-31T12:26:22;18.35;;;8.98;;
75169;SDS011;63749;49.186;9.222;2022-10-31T12:40:18;13.20;;;7.88;;
75169;SDS011;63749;49.186;9.222;2022-10-31T12:43:07;19.73;;;8.20;;
75169;SDS011;63749;49.186;9.222;2022-10-31T12:45:56;11.88;;;7.78;;
75169;SDS011;63749;49.186;9.222;2022-10-31T12:56:31;15.82;;;7.28;;
75169;SDS011;63749;49.186;9.222;2022-10-31T12:59:10;16.13;;;7.38;;
75169;SDS011;63749;49.186;9.222;2022-10-31T13:07:13;14.98;;;7.30;;
75169;SDS011;63749;49.186;9.222;2022-10-31T13:10:05;13.43;;;7.70;;
75169;SDS011;63749;49.186;9.222;2022-10-31T13:12:53;14.48;;;7.22;;
75169;SDS011;63749;49.186;9.222;2022-10-31T13:15:22;14.43;;;7.07;;
75169;SDS011;63749;49.186;9.222;2022-10-31T13:17:53;15.97;;;6.90;;
75169;SDS011;63749;49.186;9.222;2022-10-31T13:23:05;13.48;;;7.05;;
75169;SDS011;63749;49.186;9.222;2022-10-31T13:25:40;15.05;;;8.75;;
75169;SDS011;63749;49.186;9.222;2022-10-31T13:31:05;21.30;;;9.73;;
75169;SDS011;63749;49.186;9.222;2022-10-31T13:34:16;17.27;;;9.32;;
75169;SDS011;63749;49.186;9.222;2022-10-31T13:36:31;22.23;;;9.88;;
75169;SDS011;63749;49.186;9.222;2022-10-31T13:39:14;19.00;;;9.90;;
75169;SDS011;63749;49.186;9.222;2022-10-31T13:46:48;14.57;;;9.48;;
75169;SDS011;63749;49.186;9.222;2022-10-31T13:49:25;19.02;;;9.25;;
75169;SDS011;63749;49.186;9.222;2022-10-31T13:54:39;19.52;;;11.20;;
75169;SDS011;63749;49.186;9.222;2022-10-31T13:57:07;26.05;;;11.30;;
75169;SDS011;63749;49.186;9.222;2022-10-31T13:59:46;19.88;;;10.88;;
75169;SDS011;63749;49.186;9.222;2022-10-31T14:02:15;17.33;;;10.43;;
75169;SDS011;63749;49.186;9.222;2022-10-31T14:04:46;18.67;;;9.87;;
75169;SDS011;63749;49.186;9.222;2022-10-31T14:07:18;16.65;;;9.77;;
75169;SDS011;63749;49.186;9.222;2022-10-31T14:12:46;19.15;;;10.45;;
75169;SDS011;63749;49.186;9.222;2022-10-31T14:15:20;16.60;;;10.20;;
75169;SDS011;63749;49.186;9.222;2022-10-31T14:23:49;18.10;;;9.90;;
75169;SDS011;63749;49.186;9.222;2022-10-31T14:29:01;16.00;;;9.02;;
75169;SDS011;63749;49.186;9.222;2022-10-31T14:31:51;20.17;;;8.93;;
75169;SDS011;63749;49.186;9.222;2022-10-31T14:34:37;16.33;;;9.10;;
75169;SDS011;63749;49.186;9.222;2022-10-31T14:40:14;17.30;;;9.98;;
75169;SDS011;63749;49.186;9.222;2022-10-31T14:42:52;19.63;;;10.27;;
75169;SDS011;63749;49.186;9.222;2022-10-31T14:48:44;19.13;;;10.05;;
75169;SDS011;63749;49.186;9.222;2022-10-31T14:51:17;17.92;;;10.07;;
75169;SDS011;63749;49.186;9.222;2022-10-31T14:56:14;18.63;;;9.88;;
75169;SDS011;63749;49.186;9.222;2022-10-31T14:58:45;17.83;;;9.90;;
75169;SDS011;63749;49.186;9.222;2022-10-31T15:01:31;18.35;;;10.35;;
75169;SDS011;63749;49.186;9.222;2022-10-31T15:04:06;18.83;;;10.38;;
75169;SDS011;63749;49.186;9.222;2022-10-31T15:06:40;20.40;;;9.93;;
75169;SDS011;63749;49.186;9.222;2022-10-31T15:09:25;18.17;;;10.18;;
75169;SDS011;63749;49.186;9.222;2022-10-31T15:11:57;19.87;;;11.00;;
75169;SDS011;63749;49.186;9.222;2022-10-31T15:14:39;17.85;;;10.23;;
75169;SDS011;63749;49.186;9.222;2022-10-31T15:17:05;19.90;;;11.37;;
75169;SDS011;63749;49.186;9.222;2022-10-31T15:19:30;18.10;;;10.50;;
75169;SDS011;63749;49.186;9.222;2022-10-31T15:21:59;18.73;;;10.80;;
75169;SDS011;63749;49.186;9.222;2022-10-31T15:24:28;22.83;;;10.70;;
75169;SDS011;63749;49.186;9.222;2022-10-31T15:26:58;20.25;;;10.88;;
75169;SDS011;63749;49.186;9.222;2022-10-31T15:29:25;21.97;;;10.43;;
75169;SDS011;63749;49.186;9.222;2022-10-31T15:31:52;22.17;;;10.95;;
75169;SDS011;63749;49.186;9.222;2022-10-31T15:34:30;20.85;;;10.70;;
75169;SDS011;63749;49.186;9.222;2022-10-31T15:37:03;21.00;;;11.35;;
75169;SDS011;63749;49.186;9.222;2022-10-31T15:39:29;21.93;;;10.67;;
75169;SDS011;63749;49.186;9.222;2022-10-31T15:41:55;22.63;;;11.13;;
75169;SDS011;63749;49.186;9.222;2022-10-31T15:49:35;21.88;;;10.57;;
75169;SDS011;63749;49.186;9.222;2022-10-31T15:52:14;21.35;;;10.13;;
75169;SDS011;63749;49.186;9.222;2022-10-31T15:55:04;22.30;;;10.90;;
75169;SDS011;63749;49.186;9.222;2022-10-31T15:57:54;21.77;;;11.17;;
75169;SDS011;63749;49.186;9.222;2022-10-31T16:00:32;24.52;;;11.43;;
75169;SDS011;63749;49.186;9.222;2022-10-31T16:05:34;24.13;;;11.55;;
75169;SDS011;63749;49.186;9.222;2022-10-31T16:14:03;25.45;;;12.98;;
75169;SDS011;63749;49.186;9.222;2022-10-31T16:16:28;26.13;;;13.90;;
75169;SDS011;63749;49.186;9.222;2022-10-31T16:18:56;28.33;;;14.73;;
75169;SDS011;63749;49.186;9.222;2022-10-31T16:21:31;29.80;;;15.43;;
75169;SDS011;63749;49.186;9.222;2022-10-31T16:26:47;29.45;;;16.52;;
75169;SDS011;63749;49.186;9.222;2022-10-31T16:29:33;25.50;;;15.90;;
75169;SDS011;63749;49.186;9.222;2022-10-31T16:32:25;25.42;;;15.13;;
75169;SDS011;63749;49.186;9.222;2022-10-31T16:37:41;22.80;;;12.60;;
75169;SDS011;63749;49.186;9.222;2022-10-31T16:40:10;27.35;;;12.00;;
75169;SDS011;63749;49.186;9.222;2022-10-31T16:42:38;24.13;;;11.50;;
75169;SDS011;63749;49.186;9.222;2022-10-31T16:45:05;24.20;;;12.30;;
75169;SDS011;63749;49.186;9.222;2022-10-31T16:47:31;22.05;;;11.88;;
75169;SDS011;63749;49.186;9.222;2022-10-31T16:49:56;21.10;;;12.17;;
75169;SDS011;63749;49.186;9.222;2022-10-31T16:52:24;23.80;;;13.32;;
75169;SDS011;63749;49.186;9.222;2022-10-31T16:54:50;25.58;;;13.80;;
75169;SDS011;63749;49.186;9.222;2022-10-31T16:57:17;27.13;;;13.30;;
75169;SDS011;63749;49.186;9.222;2022-10-31T16:59:48;21.95;;;12.95;;
75169;SDS011;63749;49.186;9.222;2022-10-31T17:02:18;23.27;;;13.47;;